Cairns, Queensland

11:51 PM AEST on September 19, 2014 (GMT +1000)
Cairns International | Change Station
CLOSE
Current Station
Airport
Location: Cairns,
Elevation: 10 ft
Nearby Weather Stations

Elev 10 ft 16.87 °S, 145.75 °E | Updated 21 minutes ago

Partly Cloudy
Partly Cloudy
64 °F
Feels Like 64 °F
N
1
Wind Variable Wind from NW

Today
High -- | Low -- °F
--% Chance of Precip.
Yesterday
High -- | Low -- °F
Precip. -- in
6:09 AM 6:12 PM
Waning Crescent, 19% visible
Pressure 30.06 in
Visibility 6.2 miles
Clouds Few 2500 ft
Dew Point 63 °F
Humidity 94%
Rainfall 0.00 in
Snow Depth Not available.
UV 0 out of 12
Pollen Not available.
Air Quality Not available.
Flu Activity Not available.
METAR YBCS 191330Z 32001KT 9999 FEW025 18/17 Q1018

More Conditions Fewer Conditions

Pressure 30.06 in
Visibility 6.2 miles
Clouds Few 2500 ft
Dew Point 63 °F
Humidity 94%
Rainfall 0.00 in
Snow Depth Not available.
UV 0 out of 12
Pollen Not available.
Air Quality Not available.
Flu Activity Not available.
METAR YBCS 191330Z 32001KT 9999 FEW025 18/17 Q1018

More Conditions Fewer Conditions

10-Day Weather Forecast

Almanac

Astronomy

Sep. 19, 2014 Rise Set
Actual Time 6:09 AM AEST 6:12 PM AEST
Civil Twilight 5:48 AM AEST 6:34 PM AEST
Nautical Twilight 5:22 AM AEST 6:59 PM AEST
Astronomical Twilight 4:57 AM AEST 7:24 PM AEST
Moon 2:30 AM AEST 2:12 PM AEST
Length of Visible Light 12h 46m
Length of Day
12h 02m
Tomorrow will be 0m 57s longer.
Waning Crescent, 19% of the Moon is Illuminated
Today
Waning Crescent
Sep 24
New
Oct 1
First Quarter
Oct 8
Full
Oct 15
Last Quarter

Yesterday's Extremes

Country Highs Country Lows

Community

WunderPhotos

Upload Photos

1,754,608 photos uploaded!

WunderBlogs® & News

Nearby

Snow Depth

Not available.

Earthquake Activity

City Distance Mag. Time & Date
No recent earthquake activity has been reported nearby.
Minimum magnitude displayed is 2.5.

Coastal Water Temperatures

Place Temperature
No Stations Reporting

Nearby Weather Stations